MBS International Airport
KMBS : now visible

Airfield :











YOU CAN JOIN US ON...

 
LOGIN :

Register | Disclaimer

   EN    FR    IT 

 









Legend :    VFR   Marginal VFR   IFR   Intensive IFR   Very Intensive IFR
Visi :
Ceiling :
>= 8 km
>= 3000ft
5 to 8 km
1000 to 3000 ft
1500m to 5 km
500 to 1000 ft
800 to 1500m
200 to 500 ft
< 800m
< 200 ft
Symbols :   Thunderstorms  Fog  Heavy snow  Heavy precipitations  Wind > 20 kt






- Airport Elevation : 668 ft
- IATA code : MBS


KMBS - MBS International

CURRENT METAR :
  • 211853Z 25012KT 10SM FEW026 12/03 A3016 RMK AO2 SLP214 T01220033

EXPIRED METARs :
  • 211823Z 25014KT 10SM FEW025 12/04 A3016 RMK AO2 T01220039
  • 211753Z 27016G23KT 10SM OVC024 11/04 A3016 RMK AO2 SLP217 T01110039 10122 20106 53013
  • 211653Z 25017G23KT 10SM OVC027 11/04 A3015 RMK AO2 PK WND 27029/1638 SLP212 T01110039

TAF KMBS
Valid from the 21 at 18:00 until the 22 at 18:00 UTC


211720Z 2118/2218 26014G22KT P6SM BKN028
FM211900 26011G19KT P6SM SCT024 BKN250
FM212300 28005KT P6SM BKN250
FM220600 01004KT P6SM SCT045 OVC070
FM221000 01008KT 3SM SHRA BR SCT018 OVC030
FM221400 07012KT 4SM -SHRA BR OVC010
KZOB FIR / North America



MET'MAP, your aeronautical weather chart ! - Copyright ORBIFLY December 2007 - Disclaimer

ORBIFLY MET'MAP TEAM :

Programming & Development : Alexandra Zaïnal
Concept & original design : Baudouin d'Aumeries
Assistance for programming : Marc-Olivier Méhu
Technical & hardware support : Manuel Goepfert

Contact : metmap@orbifly.com




SOURCES & CREDITS :

   NOAA       Earth
Advisory